ASA362 KSEA-PANC
Flight info
| Callsign | ASA362 |
|---|---|
| Flight time | N/A |
| Altitude | 32000 |
| Route | BANGR9 ARRIE FOCHE PRYCE BKA LAIRE JOH PTERS3 |
| Aircraft | B738/M-SDGIRW/LB1 |
Departure
| Time | 2026-05-06 05:41 |
|---|---|
| Airport | Seattle–Tacoma International Airport (KSEA) |
Arrival
| Time | N/A |
|---|---|
| Airport | Ted Stevens Anchorage International Airport (PANC) |
| Time | Latitude | Longitude | Altitude | Speed | Heading |
|---|---|---|---|---|---|
| 2026-05-06 05:41 | 47.42715 | -122.63449 | 13650 ft | 267 kts | 328° |
| 2026-05-06 05:41 | 47.43561 | -122.64535 | 13972 ft | 269 kts | 328° |
| 2026-05-06 05:42 | 47.44470 | -122.65700 | 14205 ft | 278 kts | 328° |
| 2026-05-06 05:43 | 47.45998 | -122.67648 | 14329 ft | 302 kts | 327° |
| 2026-05-06 05:43 | 47.47656 | -122.69766 | 14510 ft | 328 kts | 326° |
| 2026-05-06 05:43 | 47.49441 | -122.72060 | 14748 ft | 350 kts | 326° |
| 2026-05-06 05:43 | 47.51298 | -122.74466 | 15320 ft | 359 kts | 325° |
| 2026-05-06 05:44 | 47.53191 | -122.76928 | 16049 ft | 363 kts | 325° |
| 2026-05-06 05:44 | 47.53652 | -122.77529 | 16223 ft | 363 kts | 325° |
| 2026-05-06 05:45 | 47.54515 | -122.78653 | 16560 ft | 365 kts | 325° |
| 2026-05-06 05:45 | 47.56428 | -122.81140 | 17279 ft | 368 kts | 325° |
| 2026-05-06 05:45 | 47.58364 | -122.83656 | 17978 ft | 372 kts | 325° |
| 2026-05-06 05:45 | 47.60328 | -122.86205 | 18643 ft | 376 kts | 325° |
| 2026-05-06 05:46 | 47.61481 | -122.87701 | 19015 ft | 378 kts | 325° |
| 2026-05-06 05:46 | 47.63471 | -122.90286 | 19653 ft | 383 kts | 324° |
| 2026-05-06 05:46 | 47.65286 | -122.93253 | 20237 ft | 398 kts | 309° |
| 2026-05-06 05:46 | 47.66759 | -122.96766 | 20858 ft | 403 kts | 308° |
| 2026-05-06 05:47 | 47.68229 | -123.00340 | 21440 ft | 407 kts | 308° |
| 2026-05-06 05:47 | 47.69713 | -123.03931 | 21901 ft | 411 kts | 308° |
| 2026-05-06 05:47 | 47.71223 | -123.07558 | 22343 ft | 414 kts | 308° |
| 2026-05-06 05:47 | 47.72749 | -123.11201 | 22963 ft | 416 kts | 308° |
| 2026-05-06 05:48 | 47.74284 | -123.14850 | 23448 ft | 418 kts | 308° |
| 2026-05-06 05:48 | 47.75800 | -123.18458 | 23825 ft | 420 kts | 308° |
| 2026-05-06 05:48 | 47.77355 | -123.22154 | 24237 ft | 424 kts | 308° |
| 2026-05-06 05:48 | 47.78925 | -123.25886 | 24697 ft | 427 kts | 308° |
| 2026-05-06 05:49 | 47.79700 | -123.27730 | 24938 ft | 428 kts | 308° |